sensor_id;sensor_type;location;lat;lon;timestamp;pressure;altitude;pressure_sealevel;temperature;humidity
60832;BME280;46665;51.558;-0.448;2023-02-28T00:01:53;102775.47;;;1.99;99.41
60832;BME280;46665;51.558;-0.448;2023-02-28T00:04:37;102768.94;;;2.02;99.93
60832;BME280;46665;51.558;-0.448;2023-02-28T00:07:21;102768.44;;;1.98;100.00
60832;BME280;46665;51.558;-0.448;2023-02-28T00:10:07;102770.81;;;1.93;99.93
60832;BME280;46665;51.558;-0.448;2023-02-28T00:12:52;102775.34;;;1.92;100.00
60832;BME280;46665;51.558;-0.448;2023-02-28T00:15:37;102775.50;;;1.91;100.00
60832;BME280;46665;51.558;-0.448;2023-02-28T00:18:21;102768.78;;;1.87;100.00
60832;BME280;46665;51.558;-0.448;2023-02-28T00:21:06;102765.44;;;1.85;100.00
60832;BME280;46665;51.558;-0.448;2023-02-28T00:23:50;102764.13;;;1.81;100.00
60832;BME280;46665;51.558;-0.448;2023-02-28T00:26:34;102765.97;;;1.80;100.00
60832;BME280;46665;51.558;-0.448;2023-02-28T00:29:18;102770.66;;;1.78;100.00
60832;BME280;46665;51.558;-0.448;2023-02-28T00:32:03;102768.81;;;1.79;100.00
60832;BME280;46665;51.558;-0.448;2023-02-28T00:34:46;102771.00;;;1.75;100.00
60832;BME280;46665;51.558;-0.448;2023-02-28T00:37:31;102769.00;;;1.69;100.00
60832;BME280;46665;51.558;-0.448;2023-02-28T00:40:15;102779.25;;;1.65;100.00
60832;BME280;46665;51.558;-0.448;2023-02-28T00:42:59;102786.28;;;1.66;100.00
60832;BME280;46665;51.558;-0.448;2023-02-28T00:45:43;102782.28;;;1.62;100.00
60832;BME280;46665;51.558;-0.448;2023-02-28T00:48:27;102783.59;;;1.58;100.00
60832;BME280;46665;51.558;-0.448;2023-02-28T00:51:11;102772.53;;;1.53;100.00
60832;BME280;46665;51.558;-0.448;2023-02-28T00:53:55;102767.69;;;1.48;100.00
60832;BME280;46665;51.558;-0.448;2023-02-28T00:56:39;102778.25;;;1.50;100.00
60832;BME280;46665;51.558;-0.448;2023-02-28T00:59:23;102770.69;;;1.45;100.00
60832;BME280;46665;51.558;-0.448;2023-02-28T01:02:07;102783.28;;;1.45;100.00
60832;BME280;46665;51.558;-0.448;2023-02-28T01:04:51;102784.13;;;1.45;100.00
60832;BME280;46665;51.558;-0.448;2023-02-28T01:07:35;102783.78;;;1.48;100.00
60832;BME280;46665;51.558;-0.448;2023-02-28T01:10:19;102789.13;;;1.48;100.00
60832;BME280;46665;51.558;-0.448;2023-02-28T01:13:04;102778.06;;;1.43;100.00
60832;BME280;46665;51.558;-0.448;2023-02-28T01:15:54;102783.28;;;1.45;100.00
60832;BME280;46665;51.558;-0.448;2023-02-28T01:18:39;102771.69;;;1.36;100.00
60832;BME280;46665;51.558;-0.448;2023-02-28T01:21:24;102780.56;;;1.37;100.00
60832;BME280;46665;51.558;-0.448;2023-02-28T01:24:08;102782.78;;;1.33;100.00
60832;BME280;46665;51.558;-0.448;2023-02-28T01:26:52;102780.25;;;1.32;100.00
60832;BME280;46665;51.558;-0.448;2023-02-28T01:29:36;102771.38;;;1.31;100.00
60832;BME280;46665;51.558;-0.448;2023-02-28T01:32:20;102770.88;;;1.27;100.00
60832;BME280;46665;51.558;-0.448;2023-02-28T01:35:04;102763.66;;;1.28;100.00
60832;BME280;46665;51.558;-0.448;2023-02-28T01:37:48;102770.38;;;1.32;100.00
60832;BME280;46665;51.558;-0.448;2023-02-28T01:40:32;102771.22;;;1.33;100.00
60832;BME280;46665;51.558;-0.448;2023-02-28T01:43:24;102767.34;;;1.35;100.00
60832;BME280;46665;51.558;-0.448;2023-02-28T01:46:08;102770.38;;;1.40;100.00
60832;BME280;46665;51.558;-0.448;2023-02-28T01:49:15;102767.50;;;1.42;100.00
60832;BME280;46665;51.558;-0.448;2023-02-28T01:52:01;102763.81;;;1.43;100.00
60832;BME280;46665;51.558;-0.448;2023-02-28T01:54:51;102766.50;;;1.43;100.00
60832;BME280;46665;51.558;-0.448;2023-02-28T01:57:39;102768.00;;;1.45;100.00
60832;BME280;46665;51.558;-0.448;2023-02-28T02:00:26;102766.16;;;1.46;100.00
60832;BME280;46665;51.558;-0.448;2023-02-28T02:03:13;102757.63;;;1.42;100.00
60832;BME280;46665;51.558;-0.448;2023-02-28T02:05:58;102763.31;;;1.47;100.00
60832;BME280;46665;51.558;-0.448;2023-02-28T02:08:42;102758.78;;;1.48;100.00
60832;BME280;46665;51.558;-0.448;2023-02-28T02:11:26;102762.97;;;1.50;100.00
60832;BME280;46665;51.558;-0.448;2023-02-28T02:14:43;102761.66;;;1.55;100.00
60832;BME280;46665;51.558;-0.448;2023-02-28T02:17:37;102761.66;;;1.55;100.00
60832;BME280;46665;51.558;-0.448;2023-02-28T02:21:05;102760.13;;;1.60;100.00
60832;BME280;46665;51.558;-0.448;2023-02-28T02:33:15;102751.91;;;1.70;100.00
60832;BME280;46665;51.558;-0.448;2023-02-28T02:36:24;102767.66;;;1.73;100.00
60832;BME280;46665;51.558;-0.448;2023-02-28T02:39:14;102760.44;;;1.73;100.00
60832;BME280;46665;51.558;-0.448;2023-02-28T02:42:03;102758.59;;;1.74;100.00
60832;BME280;46665;51.558;-0.448;2023-02-28T02:45:02;102762.78;;;1.77;100.00
60832;BME280;46665;51.558;-0.448;2023-02-28T02:47:49;102766.13;;;1.79;100.00
60832;BME280;46665;51.558;-0.448;2023-02-28T02:50:38;102775.38;;;1.76;100.00
60832;BME280;46665;51.558;-0.448;2023-02-28T02:53:30;102774.88;;;1.72;100.00
60832;BME280;46665;51.558;-0.448;2023-02-28T02:56:23;102773.38;;;1.70;100.00
60832;BME280;46665;51.558;-0.448;2023-02-28T02:59:11;102771.00;;;1.67;100.00
60832;BME280;46665;51.558;-0.448;2023-02-28T03:02:03;102782.41;;;1.69;100.00
60832;BME280;46665;51.558;-0.448;2023-02-28T03:04:52;102792.16;;;1.70;100.00
60832;BME280;46665;51.558;-0.448;2023-02-28T03:07:37;102774.38;;;1.69;100.00
60832;BME280;46665;51.558;-0.448;2023-02-28T03:10:28;102778.41;;;1.65;100.00
60832;BME280;46665;51.558;-0.448;2023-02-28T03:16:34;102759.09;;;1.61;100.00
60832;BME280;46665;51.558;-0.448;2023-02-28T03:20:34;102749.06;;;1.55;100.00
60832;BME280;46665;51.558;-0.448;2023-02-28T03:23:07;102750.91;;;1.46;100.00
60832;BME280;46665;51.558;-0.448;2023-02-28T03:26:12;102749.75;;;1.41;100.00
60832;BME280;46665;51.558;-0.448;2023-02-28T03:29:26;102763.31;;;1.39;100.00
60832;BME280;46665;51.558;-0.448;2023-02-28T03:32:25;102769.69;;;1.38;100.00
60832;BME280;46665;51.558;-0.448;2023-02-28T03:35:31;102769.19;;;1.35;100.00
60832;BME280;46665;51.558;-0.448;2023-02-28T03:38:22;102769.00;;;1.36;100.00
60832;BME280;46665;51.558;-0.448;2023-02-28T03:41:21;102766.00;;;1.31;100.00
60832;BME280;46665;51.558;-0.448;2023-02-28T03:44:12;102763.50;;;1.29;100.00
60832;BME280;46665;51.558;-0.448;2023-02-28T03:47:09;102766.50;;;1.26;100.00
60832;BME280;46665;51.558;-0.448;2023-02-28T03:50:04;102768.34;;;1.26;100.00
60832;BME280;46665;51.558;-0.448;2023-02-28T03:53:56;102752.59;;;1.23;100.00
60832;BME280;46665;51.558;-0.448;2023-02-28T03:56:12;102773.03;;;1.24;100.00
60832;BME280;46665;51.558;-0.448;2023-02-28T04:02:05;102766.69;;;1.25;100.00
60832;BME280;46665;51.558;-0.448;2023-02-28T04:04:49;102772.72;;;1.27;100.00
60832;BME280;46665;51.558;-0.448;2023-02-28T04:07:35;102772.88;;;1.25;100.00
60832;BME280;46665;51.558;-0.448;2023-02-28T04:10:19;102768.00;;;1.29;100.00
60832;BME280;46665;51.558;-0.448;2023-02-28T04:13:03;102769.19;;;1.26;100.00
60832;BME280;46665;51.558;-0.448;2023-02-28T04:15:47;102766.00;;;1.23;100.00
60832;BME280;46665;51.558;-0.448;2023-02-28T04:18:31;102785.94;;;1.20;100.00
60832;BME280;46665;51.558;-0.448;2023-02-28T04:21:15;102770.19;;;1.17;100.00
60832;BME280;46665;51.558;-0.448;2023-02-28T04:23:59;102779.91;;;1.18;100.00
60832;BME280;46665;51.558;-0.448;2023-02-28T04:26:51;102780.09;;;1.17;100.00
60832;BME280;46665;51.558;-0.448;2023-02-28T04:29:35;102771.53;;;1.13;100.00
60832;BME280;46665;51.558;-0.448;2023-02-28T04:32:19;102778.06;;;1.11;100.00
60832;BME280;46665;51.558;-0.448;2023-02-28T04:35:04;102787.47;;;1.06;100.00
60832;BME280;46665;51.558;-0.448;2023-02-28T04:37:48;102783.06;;;1.05;100.00
60832;BME280;46665;51.558;-0.448;2023-02-28T04:40:32;102791.63;;;1.01;100.00
60832;BME280;46665;51.558;-0.448;2023-02-28T04:43:16;102787.25;;;1.00;100.00
60832;BME280;46665;51.558;-0.448;2023-02-28T04:46:02;102791.47;;;1.02;100.00
60832;BME280;46665;51.558;-0.448;2023-02-28T04:48:46;102784.41;;;0.93;100.00
60832;BME280;46665;51.558;-0.448;2023-02-28T04:51:30;102781.69;;;0.85;100.00
60832;BME280;46665;51.558;-0.448;2023-02-28T04:54:14;102789.75;;;0.85;100.00
60832;BME280;46665;51.558;-0.448;2023-02-28T04:56:59;102791.94;;;0.90;100.00
60832;BME280;46665;51.558;-0.448;2023-02-28T04:59:43;102790.09;;;0.90;100.00
60832;BME280;46665;51.558;-0.448;2023-02-28T05:02:27;102791.59;;;0.84;100.00
60832;BME280;46665;51.558;-0.448;2023-02-28T05:05:11;102786.91;;;0.86;100.00
60832;BME280;46665;51.558;-0.448;2023-02-28T05:08:01;102794.78;;;0.88;100.00
60832;BME280;46665;51.558;-0.448;2023-02-28T05:10:45;102799.97;;;0.90;100.00
60832;BME280;46665;51.558;-0.448;2023-02-28T05:13:29;102805.84;;;0.93;100.00
60832;BME280;46665;51.558;-0.448;2023-02-28T05:16:14;102796.81;;;0.94;100.00
60832;BME280;46665;51.558;-0.448;2023-02-28T05:18:58;102808.22;;;0.96;100.00
60832;BME280;46665;51.558;-0.448;2023-02-28T05:21:51;102808.53;;;0.93;100.00
60832;BME280;46665;51.558;-0.448;2023-02-28T05:24:36;102801.16;;;0.87;100.00
60832;BME280;46665;51.558;-0.448;2023-02-28T05:27:19;102807.34;;;0.88;100.00
60832;BME280;46665;51.558;-0.448;2023-02-28T05:30:05;102811.69;;;0.89;100.00
60832;BME280;46665;51.558;-0.448;2023-02-28T05:32:51;102802.13;;;0.86;100.00
60832;BME280;46665;51.558;-0.448;2023-02-28T05:35:40;102804.16;;;0.84;100.00
60832;BME280;46665;51.558;-0.448;2023-02-28T05:38:24;102816.41;;;0.86;100.00
60832;BME280;46665;51.558;-0.448;2023-02-28T05:41:10;102813.38;;;0.90;100.00
60832;BME280;46665;51.558;-0.448;2023-02-28T05:43:54;102824.94;;;0.90;100.00
60832;BME280;46665;51.558;-0.448;2023-02-28T05:46:38;102815.38;;;0.88;100.00
60832;BME280;46665;51.558;-0.448;2023-02-28T05:49:22;102815.38;;;0.88;100.00
60832;BME280;46665;51.558;-0.448;2023-02-28T05:52:06;102815.38;;;0.88;100.00
60832;BME280;46665;51.558;-0.448;2023-02-28T05:54:50;102814.38;;;0.89;100.00
60832;BME280;46665;51.558;-0.448;2023-02-28T05:57:34;102823.09;;;0.91;100.00
60832;BME280;46665;51.558;-0.448;2023-02-28T06:00:18;102819.06;;;0.86;100.00
60832;BME280;46665;51.558;-0.448;2023-02-28T06:03:03;102823.44;;;0.88;100.00
60832;BME280;46665;51.558;-0.448;2023-02-28T06:05:47;102822.94;;;0.84;100.00
60832;BME280;46665;51.558;-0.448;2023-02-28T06:08:31;102826.91;;;0.80;100.00
60832;BME280;46665;51.558;-0.448;2023-02-28T06:11:15;102816.00;;;0.73;100.00
60832;BME280;46665;51.558;-0.448;2023-02-28T06:14:00;102830.22;;;0.65;100.00
60832;BME280;46665;51.558;-0.448;2023-02-28T06:16:46;102834.91;;;0.63;100.00
60832;BME280;46665;51.558;-0.448;2023-02-28T06:19:30;102830.03;;;0.59;100.00
60832;BME280;46665;51.558;-0.448;2023-02-28T06:22:15;102830.19;;;0.57;100.00
60832;BME280;46665;51.558;-0.448;2023-02-28T06:24:58;102825.16;;;0.54;100.00
60832;BME280;46665;51.558;-0.448;2023-02-28T06:27:43;102837.19;;;0.50;100.00
60832;BME280;46665;51.558;-0.448;2023-02-28T06:30:27;102834.78;;;0.39;100.00
60832;BME280;46665;51.558;-0.448;2023-02-28T06:33:13;102826.41;;;0.34;100.00
60832;BME280;46665;51.558;-0.448;2023-02-28T06:35:58;102833.06;;;0.30;100.00
60832;BME280;46665;51.558;-0.448;2023-02-28T06:38:43;102835.56;;;0.23;100.00
60832;BME280;46665;51.558;-0.448;2023-02-28T06:41:27;102833.50;;;0.17;100.00
60832;BME280;46665;51.558;-0.448;2023-02-28T06:44:12;102827.09;;;0.10;100.00
60832;BME280;46665;51.558;-0.448;2023-02-28T06:46:56;102827.22;;;0.00;100.00
60832;BME280;46665;51.558;-0.448;2023-02-28T06:49:40;102835.53;;;-0.03;100.00
60832;BME280;46665;51.558;-0.448;2023-02-28T06:52:25;102825.84;;;-0.04;100.00
60832;BME280;46665;51.558;-0.448;2023-02-28T06:55:09;102829.50;;;-0.05;100.00
60832;BME280;46665;51.558;-0.448;2023-02-28T06:57:53;102815.94;;;-0.12;100.00
60832;BME280;46665;51.558;-0.448;2023-02-28T07:00:38;102816.25;;;-0.15;100.00
60832;BME280;46665;51.558;-0.448;2023-02-28T07:03:22;102827.84;;;-0.06;100.00
60832;BME280;46665;51.558;-0.448;2023-02-28T07:06:06;102822.16;;;-0.03;100.00
60832;BME280;46665;51.558;-0.448;2023-02-28T07:08:54;102822.91;;;0.07;100.00
60832;BME280;46665;51.558;-0.448;2023-02-28T07:11:37;102826.28;;;0.17;100.00
60832;BME280;46665;51.558;-0.448;2023-02-28T07:14:22;102821.63;;;0.19;100.00
60832;BME280;46665;51.558;-0.448;2023-02-28T07:17:10;102829.91;;;0.34;100.00
60832;BME280;46665;51.558;-0.448;2023-02-28T07:19:56;102832.16;;;0.47;100.00
60832;BME280;46665;51.558;-0.448;2023-02-28T07:22:40;102832.88;;;0.57;100.00
60832;BME280;46665;51.558;-0.448;2023-02-28T07:25:26;102838.59;;;0.71;100.00
60832;BME280;46665;51.558;-0.448;2023-02-28T07:28:12;102831.94;;;0.83;100.00
60832;BME280;46665;51.558;-0.448;2023-02-28T07:30:56;102832.66;;;0.93;100.00
60832;BME280;46665;51.558;-0.448;2023-02-28T07:33:41;102833.69;;;1.08;100.00
60832;BME280;46665;51.558;-0.448;2023-02-28T07:36:25;102831.53;;;1.20;100.00
60832;BME280;46665;51.558;-0.448;2023-02-28T07:39:09;102838.09;;;1.34;100.00
60832;BME280;46665;51.558;-0.448;2023-02-28T07:41:54;102832.75;;;1.42;100.00
60832;BME280;46665;51.558;-0.448;2023-02-28T07:44:39;102826.69;;;1.48;100.00
60832;BME280;46665;51.558;-0.448;2023-02-28T07:47:24;102834.94;;;1.55;100.00
60832;BME280;46665;51.558;-0.448;2023-02-28T07:50:12;102830.25;;;1.57;100.00
60832;BME280;46665;51.558;-0.448;2023-02-28T07:52:58;102826.72;;;1.65;100.00
60832;BME280;46665;51.558;-0.448;2023-02-28T07:55:42;102827.69;;;1.72;100.00
60832;BME280;46665;51.558;-0.448;2023-02-28T07:58:28;102833.25;;;1.79;100.00
60832;BME280;46665;51.558;-0.448;2023-02-28T08:01:13;102826.53;;;1.83;100.00
60832;BME280;46665;51.558;-0.448;2023-02-28T08:03:57;102830.56;;;1.95;100.00
60832;BME280;46665;51.558;-0.448;2023-02-28T08:06:41;102827.50;;;2.06;100.00
60832;BME280;46665;51.558;-0.448;2023-02-28T08:09:25;102826.66;;;2.14;100.00
60832;BME280;46665;51.558;-0.448;2023-02-28T08:12:10;102830.13;;;2.23;100.00
60832;BME280;46665;51.558;-0.448;2023-02-28T08:14:54;102834.00;;;2.28;100.00
60832;BME280;46665;51.558;-0.448;2023-02-28T08:17:38;102822.41;;;2.28;100.00
60832;BME280;46665;51.558;-0.448;2023-02-28T08:20:24;102826.94;;;2.27;100.00
60832;BME280;46665;51.558;-0.448;2023-02-28T08:23:08;102821.41;;;2.29;100.00
60832;BME280;46665;51.558;-0.448;2023-02-28T08:25:53;102822.91;;;2.31;100.00
60832;BME280;46665;51.558;-0.448;2023-02-28T08:28:38;102827.94;;;2.34;100.00
60832;BME280;46665;51.558;-0.448;2023-02-28T08:31:23;102835.47;;;2.39;100.00
60832;BME280;46665;51.558;-0.448;2023-02-28T08:34:15;102839.50;;;2.43;100.00
60832;BME280;46665;51.558;-0.448;2023-02-28T08:36:59;102839.97;;;2.47;100.00
60832;BME280;46665;51.558;-0.448;2023-02-28T08:39:44;102840.78;;;2.55;100.00
60832;BME280;46665;51.558;-0.448;2023-02-28T08:42:28;102846.47;;;2.60;100.00
60832;BME280;46665;51.558;-0.448;2023-02-28T08:45:13;102856.19;;;2.70;100.00
60832;BME280;46665;51.558;-0.448;2023-02-28T08:47:57;102849.56;;;2.80;100.00
60832;BME280;46665;51.558;-0.448;2023-02-28T08:50:41;102846.50;;;2.92;100.00
60832;BME280;46665;51.558;-0.448;2023-02-28T08:53:26;102836.38;;;3.02;100.00
60832;BME280;46665;51.558;-0.448;2023-02-28T08:56:15;102852.94;;;3.14;100.00
60832;BME280;46665;51.558;-0.448;2023-02-28T08:59:00;102841.28;;;3.21;100.00
60832;BME280;46665;51.558;-0.448;2023-02-28T09:01:44;102836.84;;;3.29;100.00
60832;BME280;46665;51.558;-0.448;2023-02-28T09:04:28;102840.81;;;3.41;100.00
60832;BME280;46665;51.558;-0.448;2023-02-28T09:07:14;102831.00;;;3.48;100.00
60832;BME280;46665;51.558;-0.448;2023-02-28T09:09:58;102844.69;;;3.61;100.00
60832;BME280;46665;51.558;-0.448;2023-02-28T09:12:42;102836.53;;;3.69;100.00
60832;BME280;46665;51.558;-0.448;2023-02-28T09:15:29;102842.22;;;3.75;100.00
60832;BME280;46665;51.558;-0.448;2023-02-28T09:18:14;102832.94;;;3.77;100.00
60832;BME280;46665;51.558;-0.448;2023-02-28T09:20:58;102841.13;;;3.84;100.00
60832;BME280;46665;51.558;-0.448;2023-02-28T09:23:43;102841.91;;;3.93;100.00
60832;BME280;46665;51.558;-0.448;2023-02-28T09:26:27;102844.03;;;3.97;100.00
60832;BME280;46665;51.558;-0.448;2023-02-28T09:29:11;102842.28;;;4.04;100.00
60832;BME280;46665;51.558;-0.448;2023-02-28T09:31:55;102839.88;;;4.09;100.00
60832;BME280;46665;51.558;-0.448;2023-02-28T09:34:42;102828.81;;;4.19;100.00
60832;BME280;46665;51.558;-0.448;2023-02-28T09:37:26;102835.16;;;4.26;100.00
60832;BME280;46665;51.558;-0.448;2023-02-28T09:40:13;102822.78;;;4.32;100.00
60832;BME280;46665;51.558;-0.448;2023-02-28T09:42:59;102830.97;;;4.39;100.00
60832;BME280;46665;51.558;-0.448;2023-02-28T09:45:49;102828.34;;;4.45;100.00
60832;BME280;46665;51.558;-0.448;2023-02-28T09:48:39;102825.59;;;4.53;100.00
60832;BME280;46665;51.558;-0.448;2023-02-28T09:51:46;102824.81;;;4.60;100.00
60832;BME280;46665;51.558;-0.448;2023-02-28T09:54:35;102826.31;;;4.62;100.00
60832;BME280;46665;51.558;-0.448;2023-02-28T09:57:46;102836.97;;;4.70;100.00
60832;BME280;46665;51.558;-0.448;2023-02-28T10:00:34;102834.38;;;4.77;100.00
60832;BME280;46665;51.558;-0.448;2023-02-28T10:06:19;102830.91;;;4.83;100.00
60832;BME280;46665;51.558;-0.448;2023-02-28T10:09:10;102831.28;;;4.95;100.00
60832;BME280;46665;51.558;-0.448;2023-02-28T10:12:02;102830.97;;;5.05;100.00
60832;BME280;46665;51.558;-0.448;2023-02-28T10:14:49;102824.41;;;5.14;100.00
60832;BME280;46665;51.558;-0.448;2023-02-28T10:17:41;102822.44;;;5.22;100.00
60832;BME280;46665;51.558;-0.448;2023-02-28T10:20:27;102828.94;;;5.28;100.00
60832;BME280;46665;51.558;-0.448;2023-02-28T10:23:26;102822.38;;;5.37;100.00
60832;BME280;46665;51.558;-0.448;2023-02-28T10:26:13;102815.38;;;5.43;100.00
60832;BME280;46665;51.558;-0.448;2023-02-28T10:29:00;102819.09;;;5.42;100.00
60832;BME280;46665;51.558;-0.448;2023-02-28T10:31:44;102811.84;;;5.42;100.00
60832;BME280;46665;51.558;-0.448;2023-02-28T10:34:28;102825.25;;;5.36;100.00
60832;BME280;46665;51.558;-0.448;2023-02-28T10:37:12;102815.75;;;5.40;100.00
60832;BME280;46665;51.558;-0.448;2023-02-28T10:39:56;102826.75;;;5.38;100.00
60832;BME280;46665;51.558;-0.448;2023-02-28T10:42:40;102821.28;;;5.32;100.00
60832;BME280;46665;51.558;-0.448;2023-02-28T10:45:25;102818.03;;;5.21;100.00
60832;BME280;46665;51.558;-0.448;2023-02-28T10:50:57;102805.13;;;5.38;100.00
60832;BME280;46665;51.558;-0.448;2023-02-28T10:56:26;102799.22;;;5.50;100.00
60832;BME280;46665;51.558;-0.448;2023-02-28T10:59:30;102803.44;;;5.59;100.00
60832;BME280;46665;51.558;-0.448;2023-02-28T11:02:35;102803.91;;;5.62;100.00
60832;BME280;46665;51.558;-0.448;2023-02-28T11:05:28;102794.94;;;5.62;100.00
60832;BME280;46665;51.558;-0.448;2023-02-28T11:08:15;102790.19;;;5.64;100.00
60832;BME280;46665;51.558;-0.448;2023-02-28T11:11:04;102792.72;;;5.65;100.00
60832;BME280;46665;51.558;-0.448;2023-02-28T11:13:52;102802.28;;;5.68;100.00
60832;BME280;46665;51.558;-0.448;2023-02-28T11:16:37;102788.13;;;5.66;100.00
60832;BME280;46665;51.558;-0.448;2023-02-28T11:19:28;102787.75;;;5.69;100.00
60832;BME280;46665;51.558;-0.448;2023-02-28T11:22:19;102788.38;;;5.71;100.00
60832;BME280;46665;51.558;-0.448;2023-02-28T11:25:16;102792.78;;;5.72;100.00
60832;BME280;46665;51.558;-0.448;2023-02-28T11:28:06;102798.19;;;5.72;100.00
60832;BME280;46665;51.558;-0.448;2023-02-28T11:34:26;102786.72;;;5.70;100.00
60832;BME280;46665;51.558;-0.448;2023-02-28T11:37:20;102788.97;;;5.67;100.00
60832;BME280;46665;51.558;-0.448;2023-02-28T11:40:16;102783.16;;;5.70;100.00
60832;BME280;46665;51.558;-0.448;2023-02-28T11:51:59;102759.00;;;5.90;100.00
60832;BME280;46665;51.558;-0.448;2023-02-28T12:00:31;102731.97;;;5.90;100.00
60832;BME280;46665;51.558;-0.448;2023-02-28T12:06:52;102686.03;;;5.90;100.00
60832;BME280;46665;51.558;-0.448;2023-02-28T12:09:46;102694.41;;;5.95;100.00
60832;BME280;46665;51.558;-0.448;2023-02-28T12:25:02;102723.38;;;6.07;100.00
60832;BME280;46665;51.558;-0.448;2023-02-28T12:27:51;102720.47;;;6.09;100.00
60832;BME280;46665;51.558;-0.448;2023-02-28T12:30:42;102700.50;;;6.10;100.00
60832;BME280;46665;51.558;-0.448;2023-02-28T12:33:42;102689.69;;;6.10;100.00
60832;BME280;46665;51.558;-0.448;2023-02-28T12:36:29;102692.03;;;6.20;100.00
60832;BME280;46665;51.558;-0.448;2023-02-28T12:39:28;102683.28;;;6.18;100.00
60832;BME280;46665;51.558;-0.448;2023-02-28T12:42:19;102695.38;;;6.22;100.00
60832;BME280;46665;51.558;-0.448;2023-02-28T12:47:58;102671.47;;;6.19;100.00
60832;BME280;46665;51.558;-0.448;2023-02-28T12:50:44;102680.84;;;6.23;100.00
60832;BME280;46665;51.558;-0.448;2023-02-28T12:53:39;102676.44;;;6.22;100.00
60832;BME280;46665;51.558;-0.448;2023-02-28T12:59:57;102656.69;;;6.21;100.00
60832;BME280;46665;51.558;-0.448;2023-02-28T13:09:05;102643.63;;;6.32;100.00
60832;BME280;46665;51.558;-0.448;2023-02-28T13:11:53;102627.81;;;6.35;100.00
60832;BME280;46665;51.558;-0.448;2023-02-28T13:14:38;102618.47;;;6.38;100.00
60832;BME280;46665;51.558;-0.448;2023-02-28T13:17:24;102618.69;;;6.36;100.00
60832;BME280;46665;51.558;-0.448;2023-02-28T13:20:23;102613.47;;;6.35;100.00
60832;BME280;46665;51.558;-0.448;2023-02-28T13:26:20;102611.41;;;6.37;100.00
60832;BME280;46665;51.558;-0.448;2023-02-28T13:29:21;102604.94;;;6.38;100.00
60832;BME280;46665;51.558;-0.448;2023-02-28T13:37:44;102587.09;;;6.63;100.00
60832;BME280;46665;51.558;-0.448;2023-02-28T13:40:34;102578.34;;;6.68;100.00
60832;BME280;46665;51.558;-0.448;2023-02-28T13:49:32;102577.31;;;6.76;100.00
60832;BME280;46665;51.558;-0.448;2023-02-28T13:52:20;102578.56;;;6.73;100.00
60832;BME280;46665;51.558;-0.448;2023-02-28T13:55:19;102578.16;;;6.69;100.00
60832;BME280;46665;51.558;-0.448;2023-02-28T14:07:45;102572.75;;;6.69;100.00
60832;BME280;46665;51.558;-0.448;2023-02-28T14:10:34;102563.19;;;6.73;100.00
60832;BME280;46665;51.558;-0.448;2023-02-28T14:13:56;102565.25;;;6.85;100.00
60832;BME280;46665;51.558;-0.448;2023-02-28T14:16:47;102556.91;;;6.93;100.00
60832;BME280;46665;51.558;-0.448;2023-02-28T14:19:33;102548.78;;;7.00;100.00
60832;BME280;46665;51.558;-0.448;2023-02-28T14:25:44;102551.47;;;7.06;99.90
60832;BME280;46665;51.558;-0.448;2023-02-28T14:29:05;102555.84;;;7.07;99.88
60832;BME280;46665;51.558;-0.448;2023-02-28T14:32:10;102560.63;;;7.05;98.75
60832;BME280;46665;51.558;-0.448;2023-02-28T14:37:46;102552.50;;;6.99;97.22
60832;BME280;46665;51.558;-0.448;2023-02-28T14:40:33;102552.13;;;6.95;97.39
60832;BME280;46665;51.558;-0.448;2023-02-28T14:43:26;102554.44;;;6.91;97.71
60832;BME280;46665;51.558;-0.448;2023-02-28T14:46:11;102554.44;;;6.91;97.47
60832;BME280;46665;51.558;-0.448;2023-02-28T14:48:56;102554.63;;;6.90;99.16
60832;BME280;46665;51.558;-0.448;2023-02-28T14:51:40;102550.47;;;6.87;98.83
60832;BME280;46665;51.558;-0.448;2023-02-28T14:54:24;102536.09;;;6.87;99.04
60832;BME280;46665;51.558;-0.448;2023-02-28T14:57:31;102524.44;;;6.80;98.73
60832;BME280;46665;51.558;-0.448;2023-02-28T15:03:19;102526.09;;;6.81;98.15
60832;BME280;46665;51.558;-0.448;2023-02-28T15:06:11;102527.97;;;6.80;98.85
60832;BME280;46665;51.558;-0.448;2023-02-28T15:09:16;102526.53;;;6.84;99.35
60832;BME280;46665;51.558;-0.448;2023-02-28T15:12:01;102520.06;;;6.85;98.66
60832;BME280;46665;51.558;-0.448;2023-02-28T15:14:46;102526.31;;;6.86;99.40
60832;BME280;46665;51.558;-0.448;2023-02-28T15:17:30;102528.41;;;6.84;99.98
60832;BME280;46665;51.558;-0.448;2023-02-28T15:20:15;102523.41;;;6.81;99.51
60832;BME280;46665;51.558;-0.448;2023-02-28T15:23:00;102518.84;;;6.81;99.16
60832;BME280;46665;51.558;-0.448;2023-02-28T15:25:45;102526.97;;;6.81;99.39
60832;BME280;46665;51.558;-0.448;2023-02-28T15:28:30;102517.97;;;6.81;99.32
60832;BME280;46665;51.558;-0.448;2023-02-28T15:31:26;102522.56;;;6.80;99.06
60832;BME280;46665;51.558;-0.448;2023-02-28T15:34:42;102521.75;;;6.86;99.89
60832;BME280;46665;51.558;-0.448;2023-02-28T15:40:41;102516.34;;;6.86;98.99
60832;BME280;46665;51.558;-0.448;2023-02-28T15:46:11;102513.19;;;6.89;99.28
60832;BME280;46665;51.558;-0.448;2023-02-28T15:48:56;102507.56;;;6.91;98.72
60832;BME280;46665;51.558;-0.448;2023-02-28T15:51:41;102507.16;;;6.87;98.31
60832;BME280;46665;51.558;-0.448;2023-02-28T15:54:32;102511.53;;;6.88;98.52
60832;BME280;46665;51.558;-0.448;2023-02-28T15:57:27;102510.06;;;6.86;98.57
60832;BME280;46665;51.558;-0.448;2023-02-28T16:00:14;102516.34;;;6.86;98.69
60832;BME280;46665;51.558;-0.448;2023-02-28T16:02:59;102523.41;;;6.87;98.23
60832;BME280;46665;51.558;-0.448;2023-02-28T16:05:43;102531.31;;;6.89;99.04
60832;BME280;46665;51.558;-0.448;2023-02-28T16:08:27;102526.94;;;6.88;98.14
60832;BME280;46665;51.558;-0.448;2023-02-28T16:11:11;102520.06;;;6.85;97.95
60832;BME280;46665;51.558;-0.448;2023-02-28T16:13:56;102526.72;;;6.83;97.52
60832;BME280;46665;51.558;-0.448;2023-02-28T16:16:45;102533.81;;;6.84;96.82
60832;BME280;46665;51.558;-0.448;2023-02-28T16:19:31;102531.50;;;6.81;96.05